Time;durP1;ratioP1;P1;durP2;ratioP2;P2;SDS_P1;SDS_P2;PMS_P1;PMS_P2;Temp;Humidity;BMP_temperature;BMP_pressure;BME280_temperature;BME280_humidity;BME280_pressure;Samples;Min_cycle;Max_cycle;Signal;HPM_P1;HPM_P2
2023/07/20 00:01:05;;;;;;;5.75;2.38;;;;;;;;;;5021374;28;20439;-77
2023/07/20 00:03:31;;;;;;;6.00;2.30;;;;;;;;;;5019294;28;20542;-74
2023/07/20 00:05:56;;;;;;;6.30;2.53;;;;;;;;;;5020541;28;20075;-75
2023/07/20 00:08:22;;;;;;;9.13;2.80;;;;;;;;;;5019896;28;20411;-74
2023/07/20 00:10:47;;;;;;;7.97;2.70;;;;;;;;;;5019449;28;20029;-74
2023/07/20 00:13:13;;;;;;;7.07;2.67;;;;;;;;;;5020602;28;20036;-75
2023/07/20 00:15:38;;;;;;;10.30;2.90;;;;;;;;;;5019978;28;20111;-74
2023/07/20 00:18:04;;;;;;;6.95;2.30;;;;;;;;;;5021496;28;20037;-75
2023/07/20 00:20:30;;;;;;;10.43;2.58;;;;;;;;;;5017704;28;20147;-76
2023/07/20 00:22:57;;;;;;;6.05;2.45;;;;;;;;;;5021543;28;20021;-76
2023/07/20 00:25:22;;;;;;;5.68;2.22;;;;;;;;;;5019676;28;20032;-75
2023/07/20 00:27:48;;;;;;;7.32;2.67;;;;;;;;;;5017650;28;20047;-75
2023/07/20 00:30:14;;;;;;;7.03;2.25;;;;;;;;;;5021034;28;20028;-76
2023/07/20 00:32:39;;;;;;;6.50;2.40;;;;;;;;;;5018854;28;20033;-74
2023/07/20 00:35:05;;;;;;;10.48;2.40;;;;;;;;;;5019656;28;20037;-77
2023/07/20 00:37:30;;;;;;;7.10;2.33;;;;;;;;;;5021229;28;20032;-76
2023/07/20 00:39:56;;;;;;;8.30;2.63;;;;;;;;;;5036644;28;20082;-76
2023/07/20 00:42:21;;;;;;;4.80;2.03;;;;;;;;;;5036064;28;20042;-76
2023/07/20 00:44:47;;;;;;;6.50;2.35;;;;;;;;;;5023620;28;20044;-74
2023/07/20 00:47:12;;;;;;;5.75;2.10;;;;;;;;;;5029832;28;20410;-73
2023/07/20 00:49:38;;;;;;;4.22;2.20;;;;;;;;;;5023237;28;20094;-73
2023/07/20 00:52:06;;;;;;;4.07;1.88;;;;;;;;;;5030806;28;20027;-73
2023/07/20 00:54:32;;;;;;;5.43;2.55;;;;;;;;;;5023131;28;20917;-74
2023/07/20 00:56:58;;;;;;;4.80;1.98;;;;;;;;;;5032433;28;20032;-73
2023/07/20 00:59:24;;;;;;;5.32;1.80;;;;;;;;;;5035972;28;20098;-74
2023/07/20 01:01:49;;;;;;;6.28;2.25;;;;;;;;;;5036624;28;20018;-73
2023/07/20 01:04:15;;;;;;;7.30;2.00;;;;;;;;;;5025522;28;20025;-75
2023/07/20 01:06:55;;;;;;;7.57;2.40;;;;;;;;;;5027160;28;20044;-73
2023/07/20 01:09:44;;;;;;;11.38;2.22;;;;;;;;;;5036026;28;20091;-72
2023/07/20 01:12:17;;;;;;;3.90;2.03;;;;;;;;;;5034941;28;20033;-72
2023/07/20 01:14:43;;;;;;;8.15;1.98;;;;;;;;;;5035089;28;20420;-74
2023/07/20 01:17:08;;;;;;;7.97;1.90;;;;;;;;;;5036832;28;20013;-72
2023/07/20 01:19:34;;;;;;;7.35;1.83;;;;;;;;;;5036312;28;20120;-74
2023/07/20 01:22:03;;;;;;;5.93;2.50;;;;;;;;;;5021952;28;20351;-72
2023/07/20 01:24:34;;;;;;;8.55;2.30;;;;;;;;;;5029464;28;20021;-73
2023/07/20 01:27:12;;;;;;;4.82;2.15;;;;;;;;;;5032044;28;20337;-74
2023/07/20 01:29:49;;;;;;;9.00;2.55;;;;;;;;;;5035803;28;20032;-74
2023/07/20 01:32:17;;;;;;;7.68;2.20;;;;;;;;;;5036165;28;20505;-72
2023/07/20 01:34:43;;;;;;;6.68;2.30;;;;;;;;;;5024104;28;20451;-73
2023/07/20 01:37:09;;;;;;;9.18;2.65;;;;;;;;;;5024025;28;20020;-73
2023/07/20 01:39:35;;;;;;;5.95;2.10;;;;;;;;;;5028824;28;20033;-73
2023/07/20 01:42:03;;;;;;;6.63;2.33;;;;;;;;;;5021877;28;20444;-75
2023/07/20 01:44:29;;;;;;;8.05;1.98;;;;;;;;;;5030210;28;20045;-76
2023/07/20 01:46:54;;;;;;;6.90;2.17;;;;;;;;;;5038117;28;20024;-73
2023/07/20 01:49:20;;;;;;;4.80;2.20;;;;;;;;;;5039835;28;20361;-73
2023/07/20 01:51:45;;;;;;;10.50;2.63;;;;;;;;;;5038551;28;20027;-73
2023/07/20 01:54:10;;;;;;;6.55;2.80;;;;;;;;;;5028502;28;20135;-73
2023/07/20 01:56:36;;;;;;;4.65;2.40;;;;;;;;;;5038426;28;20040;-73
2023/07/20 01:59:01;;;;;;;5.75;2.25;;;;;;;;;;5033814;28;20050;-74
2023/07/20 02:01:28;;;;;;;9.73;2.60;;;;;;;;;;5022333;28;21244;-76
2023/07/20 02:03:54;;;;;;;6.65;2.28;;;;;;;;;;5036602;28;20402;-74
2023/07/20 02:06:19;;;;;;;7.90;2.67;;;;;;;;;;5040390;28;20025;-72
2023/07/20 02:08:44;;;;;;;14.25;2.97;;;;;;;;;;5030510;28;20059;-74
2023/07/20 02:11:10;;;;;;;6.68;2.03;;;;;;;;;;5035913;28;20064;-73
2023/07/20 02:13:36;;;;;;;6.07;2.60;;;;;;;;;;5041142;28;20067;-72
2023/07/20 02:16:01;;;;;;;7.97;2.40;;;;;;;;;;5035004;28;20057;-73
2023/07/20 02:18:26;;;;;;;13.30;2.40;;;;;;;;;;5029293;28;20041;-73
2023/07/20 02:20:52;;;;;;;7.55;2.58;;;;;;;;;;5037768;28;20037;-75
2023/07/20 02:23:18;;;;;;;8.93;2.70;;;;;;;;;;5031843;28;20072;-73
2023/07/20 02:25:44;;;;;;;6.93;2.88;;;;;;;;;;5024341;28;20021;-75
2023/07/20 02:28:12;;;;;;;12.27;2.75;;;;;;;;;;5035256;28;20052;-73
2023/07/20 02:30:40;;;;;;;8.52;2.25;;;;;;;;;;5036693;28;20871;-72
2023/07/20 02:33:06;;;;;;;12.27;3.17;;;;;;;;;;5040637;28;20056;-72
2023/07/20 02:35:32;;;;;;;10.35;2.42;;;;;;;;;;5026988;28;20025;-73
2023/07/20 02:37:57;;;;;;;6.55;2.28;;;;;;;;;;5024472;28;20043;-71
2023/07/20 02:40:22;;;;;;;8.77;2.70;;;;;;;;;;5026038;28;20025;-72
2023/07/20 02:42:48;;;;;;;8.52;2.55;;;;;;;;;;5030108;28;20047;-72
2023/07/20 02:45:13;;;;;;;6.13;2.53;;;;;;;;;;5038661;28;20363;-73
2023/07/20 02:47:38;;;;;;;7.97;2.60;;;;;;;;;;5038652;28;20652;-73
2023/07/20 02:50:06;;;;;;;8.40;2.92;;;;;;;;;;5037385;28;20037;-72
2023/07/20 02:52:32;;;;;;;5.75;2.38;;;;;;;;;;5037864;28;20025;-72
2023/07/20 02:54:57;;;;;;;10.40;2.58;;;;;;;;;;5030853;28;20533;-72
2023/07/20 02:57:22;;;;;;;10.38;2.72;;;;;;;;;;5024043;28;20510;-72
2023/07/20 02:59:48;;;;;;;10.57;2.58;;;;;;;;;;5022781;28;20029;-72
2023/07/20 03:02:13;;;;;;;6.07;2.67;;;;;;;;;;5023790;28;20103;-72
2023/07/20 03:04:38;;;;;;;7.53;2.72;;;;;;;;;;5031299;28;20091;-72
2023/07/20 03:07:07;;;;;;;8.32;2.10;;;;;;;;;;5036814;28;20029;-72
2023/07/20 03:09:33;;;;;;;7.65;3.03;;;;;;;;;;5048755;28;20048;-73
2023/07/20 03:11:58;;;;;;;8.35;2.60;;;;;;;;;;5042931;28;20064;-72
2023/07/20 03:14:23;;;;;;;8.38;2.58;;;;;;;;;;5031307;28;20107;-73
2023/07/20 03:16:49;;;;;;;10.73;2.67;;;;;;;;;;5035996;28;20372;-72
2023/07/20 03:19:14;;;;;;;5.75;2.40;;;;;;;;;;5037962;28;20084;-72
2023/07/20 03:21:40;;;;;;;5.78;2.42;;;;;;;;;;5035516;28;20482;-72
2023/07/20 03:24:07;;;;;;;10.10;2.90;;;;;;;;;;5030218;28;20500;-72
2023/07/20 03:26:32;;;;;;;8.88;3.10;;;;;;;;;;5035556;28;20492;-72
2023/07/20 03:28:58;;;;;;;7.15;2.47;;;;;;;;;;5039237;28;20100;-73
2023/07/20 03:31:23;;;;;;;8.35;2.75;;;;;;;;;;5025975;28;20359;-72
2023/07/20 03:33:48;;;;;;;9.63;2.65;;;;;;;;;;5038595;28;20352;-72
2023/07/20 03:36:13;;;;;;;8.90;2.70;;;;;;;;;;5038357;28;20360;-73
2023/07/20 03:38:39;;;;;;;5.43;2.45;;;;;;;;;;5036166;28;20431;-73
2023/07/20 03:41:04;;;;;;;8.05;2.58;;;;;;;;;;5039320;28;20017;-72
2023/07/20 03:43:30;;;;;;;7.40;2.60;;;;;;;;;;5039838;28;20044;-72
2023/07/20 03:45:56;;;;;;;6.43;2.50;;;;;;;;;;5038149;28;20021;-72
2023/07/20 03:48:22;;;;;;;8.23;2.50;;;;;;;;;;5036074;28;20423;-72
2023/07/20 03:50:49;;;;;;;9.13;2.67;;;;;;;;;;5036911;28;20020;-71
2023/07/20 03:53:15;;;;;;;9.32;2.72;;;;;;;;;;5027202;28;20056;-71
2023/07/20 03:55:41;;;;;;;10.77;2.63;;;;;;;;;;5037586;28;20090;-72
2023/07/20 03:58:09;;;;;;;6.10;2.30;;;;;;;;;;5037924;28;20028;-73
2023/07/20 04:00:34;;;;;;;9.10;2.75;;;;;;;;;;5037022;28;20025;-72
2023/07/20 04:03:00;;;;;;;8.43;3.05;;;;;;;;;;5070960;28;20432;-71
2023/07/20 04:05:26;;;;;;;11.23;2.50;;;;;;;;;;5039031;28;20028;-73
2023/07/20 04:07:51;;;;;;;7.75;3.05;;;;;;;;;;5032171;28;20032;-71
2023/07/20 04:10:17;;;;;;;11.85;3.15;;;;;;;;;;5024049;28;20353;-73
2023/07/20 04:12:43;;;;;;;13.73;2.53;;;;;;;;;;5028695;28;20455;-71
2023/07/20 04:15:09;;;;;;;7.55;2.65;;;;;;;;;;5034187;28;20112;-71
2023/07/20 04:17:34;;;;;;;6.07;2.92;;;;;;;;;;5037290;28;20154;-71
2023/07/20 04:19:59;;;;;;;6.82;2.40;;;;;;;;;;5037387;28;20094;-72
2023/07/20 04:22:25;;;;;;;5.60;2.45;;;;;;;;;;5035908;28;20025;-72
2023/07/20 04:24:50;;;;;;;7.10;3.00;;;;;;;;;;5026812;28;20048;-71
2023/07/20 04:27:15;;;;;;;12.15;3.22;;;;;;;;;;5024747;28;20017;-72
2023/07/20 04:29:41;;;;;;;9.30;2.88;;;;;;;;;;5030837;28;20047;-71
2023/07/20 04:32:06;;;;;;;12.55;2.90;;;;;;;;;;5034766;28;20027;-70
2023/07/20 04:34:32;;;;;;;8.10;2.80;;;;;;;;;;5036149;28;20050;-71
2023/07/20 04:36:57;;;;;;;9.93;3.22;;;;;;;;;;5037461;28;20107;-71
2023/07/20 04:39:22;;;;;;;7.07;2.50;;;;;;;;;;5023184;28;20064;-72
2023/07/20 04:41:48;;;;;;;4.55;2.92;;;;;;;;;;5033140;28;20026;-72
2023/07/20 04:44:13;;;;;;;6.43;2.97;;;;;;;;;;5037239;28;20027;-72
2023/07/20 04:46:39;;;;;;;11.40;3.30;;;;;;;;;;5024216;28;20021;-71
2023/07/20 04:49:05;;;;;;;7.63;2.65;;;;;;;;;;5029361;28;20355;-73
2023/07/20 04:51:30;;;;;;;9.85;3.05;;;;;;;;;;5037631;28;20028;-73
2023/07/20 04:53:56;;;;;;;8.13;2.47;;;;;;;;;;5033647;28;20844;-73
2023/07/20 04:56:23;;;;;;;8.30;2.85;;;;;;;;;;5023324;28;20412;-72
2023/07/20 04:58:48;;;;;;;9.85;3.08;;;;;;;;;;5034695;28;20414;-73
2023/07/20 05:01:13;;;;;;;8.30;2.88;;;;;;;;;;5036220;28;20022;-73
2023/07/20 05:03:39;;;;;;;14.82;3.28;;;;;;;;;;5036725;28;20456;-73
2023/07/20 05:06:04;;;;;;;9.07;2.65;;;;;;;;;;5033929;28;20041;-72
2023/07/20 05:08:29;;;;;;;7.50;2.85;;;;;;;;;;5023011;28;20033;-72
2023/07/20 05:10:55;;;;;;;11.25;2.90;;;;;;;;;;5020189;28;20475;-71
2023/07/20 05:13:20;;;;;;;6.90;2.67;;;;;;;;;;5023795;28;20029;-71
2023/07/20 05:15:45;;;;;;;9.02;3.30;;;;;;;;;;5026015;28;20028;-71
2023/07/20 05:18:11;;;;;;;7.70;3.20;;;;;;;;;;5028152;28;20041;-71
2023/07/20 05:20:37;;;;;;;6.63;3.10;;;;;;;;;;5033325;28;20028;-71
2023/07/20 05:23:02;;;;;;;7.47;3.30;;;;;;;;;;5024932;28;20114;-72
2023/07/20 05:25:27;;;;;;;7.40;3.00;;;;;;;;;;5030597;28;20052;-73
2023/07/20 05:27:55;;;;;;;8.43;3.05;;;;;;;;;;5035447;28;20427;-72
2023/07/20 05:30:20;;;;;;;9.13;3.90;;;;;;;;;;5032293;28;20141;-72
2023/07/20 05:32:50;;;;;;;7.55;2.85;;;;;;;;;;5038402;28;20466;-70
2023/07/20 05:35:17;;;;;;;8.05;3.05;;;;;;;;;;5039771;28;20033;-72
2023/07/20 05:37:43;;;;;;;6.75;2.63;;;;;;;;;;5037161;28;20074;-77
2023/07/20 05:40:10;;;;;;;7.85;2.97;;;;;;;;;;5023058;28;20036;-74
2023/07/20 05:42:35;;;;;;;8.57;3.25;;;;;;;;;;5026725;28;20029;-75
2023/07/20 05:45:00;;;;;;;10.52;3.33;;;;;;;;;;5024075;28;20083;-76
2023/07/20 05:47:26;;;;;;;12.18;3.10;;;;;;;;;;5026674;28;20030;-75
2023/07/20 05:49:51;;;;;;;8.43;2.63;;;;;;;;;;5038850;28;20356;-74
2023/07/20 05:52:16;;;;;;;8.68;3.60;;;;;;;;;;5039046;28;20025;-76
2023/07/20 05:54:42;;;;;;;12.75;3.55;;;;;;;;;;5022306;28;20021;-74
2023/07/20 05:57:07;;;;;;;10.85;3.58;;;;;;;;;;5030700;28;20120;-74
2023/07/20 05:59:33;;;;;;;7.05;2.90;;;;;;;;;;5038202;28;20044;-74
2023/07/20 06:01:58;;;;;;;6.15;2.85;;;;;;;;;;5036337;28;20028;-76
2023/07/20 06:04:23;;;;;;;9.02;3.10;;;;;;;;;;5032941;28;20032;-75
2023/07/20 06:06:49;;;;;;;9.65;3.05;;;;;;;;;;5033389;28;20561;-76
2023/07/20 06:09:14;;;;;;;7.25;3.10;;;;;;;;;;5035752;28;20937;-74
2023/07/20 06:11:40;;;;;;;9.63;3.30;;;;;;;;;;5038611;28;20037;-75
2023/07/20 06:14:05;;;;;;;6.85;2.40;;;;;;;;;;5037893;28;21181;-74
2023/07/20 06:16:30;;;;;;;7.80;3.03;;;;;;;;;;5039847;28;20021;-75
2023/07/20 06:18:56;;;;;;;5.53;2.92;;;;;;;;;;5037348;28;20340;-74
2023/07/20 06:21:21;;;;;;;8.10;3.08;;;;;;;;;;5036704;28;20367;-74
2023/07/20 06:23:47;;;;;;;9.50;3.17;;;;;;;;;;5038986;28;20021;-74
2023/07/20 06:26:12;;;;;;;7.45;2.75;;;;;;;;;;5037586;28;20029;-74
2023/07/20 06:28:37;;;;;;;7.05;3.40;;;;;;;;;;5038751;28;20519;-73
2023/07/20 06:31:03;;;;;;;7.53;3.10;;;;;;;;;;5039419;28;20027;-74
2023/07/20 06:33:29;;;;;;;8.68;3.28;;;;;;;;;;5038782;28;20025;-74
2023/07/20 06:35:56;;;;;;;8.73;4.03;;;;;;;;;;5040340;28;20040;-73
2023/07/20 06:38:23;;;;;;;9.65;3.90;;;;;;;;;;5038506;28;20029;-73
2023/07/20 06:40:48;;;;;;;7.53;3.70;;;;;;;;;;5036904;28;20025;-73
2023/07/20 06:43:14;;;;;;;7.43;4.15;;;;;;;;;;5038970;28;20028;-75
2023/07/20 06:45:39;;;;;;;8.70;3.78;;;;;;;;;;5037792;28;20033;-75
2023/07/20 06:48:05;;;;;;;6.68;4.07;;;;;;;;;;5037535;28;20043;-74
2023/07/20 06:50:30;;;;;;;7.20;3.40;;;;;;;;;;5039712;28;20017;-75
2023/07/20 06:52:55;;;;;;;9.23;3.40;;;;;;;;;;5039437;28;20118;-76
2023/07/20 06:55:21;;;;;;;7.80;3.72;;;;;;;;;;5037554;28;20069;-75
2023/07/20 06:57:46;;;;;;;7.97;3.95;;;;;;;;;;5039834;28;20080;-75
2023/07/20 07:00:12;;;;;;;8.05;3.97;;;;;;;;;;5037673;28;20060;-75
2023/07/20 07:02:38;;;;;;;10.50;3.78;;;;;;;;;;5031350;28;20078;-75
2023/07/20 07:05:03;;;;;;;9.25;4.25;;;;;;;;;;5020309;28;20068;-75
2023/07/20 07:07:28;;;;;;;11.00;3.88;;;;;;;;;;5022844;28;20033;-75
2023/07/20 07:09:54;;;;;;;7.03;3.92;;;;;;;;;;5028432;28;20039;-76
2023/07/20 07:12:19;;;;;;;13.25;5.30;;;;;;;;;;5030372;28;20041;-75
2023/07/20 07:14:44;;;;;;;12.27;4.70;;;;;;;;;;5044065;28;20055;-72
2023/07/20 07:17:10;;;;;;;9.38;4.63;;;;;;;;;;5042875;28;20057;-75
2023/07/20 07:19:36;;;;;;;11.02;4.82;;;;;;;;;;5039713;28;20040;-74
2023/07/20 07:22:01;;;;;;;9.68;4.82;;;;;;;;;;5036115;28;20024;-73
2023/07/20 07:24:27;;;;;;;7.47;4.53;;;;;;;;;;5032722;28;20040;-72
2023/07/20 07:26:53;;;;;;;10.23;4.97;;;;;;;;;;5027381;28;20439;-73
2023/07/20 07:29:18;;;;;;;9.63;4.35;;;;;;;;;;5034730;28;20033;-73
2023/07/20 07:31:43;;;;;;;10.85;5.20;;;;;;;;;;5038095;28;20032;-74
2023/07/20 07:34:09;;;;;;;9.88;4.93;;;;;;;;;;5038088;28;20499;-75
2023/07/20 07:36:34;;;;;;;10.45;4.88;;;;;;;;;;5029196;28;20102;-74
2023/07/20 07:39:00;;;;;;;10.43;4.75;;;;;;;;;;5023979;28;20036;-76
2023/07/20 07:41:25;;;;;;;10.52;5.13;;;;;;;;;;5028713;28;20020;-74
2023/07/20 07:43:52;;;;;;;8.27;4.95;;;;;;;;;;5025360;28;20027;-76
2023/07/20 07:46:17;;;;;;;8.38;4.75;;;;;;;;;;5036889;28;20041;-76
2023/07/20 07:48:43;;;;;;;9.27;4.82;;;;;;;;;;5025157;28;20709;-75
2023/07/20 07:51:08;;;;;;;9.48;4.68;;;;;;;;;;5023428;28;20099;-74
2023/07/20 07:53:36;;;;;;;11.27;4.85;;;;;;;;;;5028052;28;20041;-77
2023/07/20 07:56:03;;;;;;;9.00;4.38;;;;;;;;;;5020792;28;20039;-75
2023/07/20 07:58:28;;;;;;;10.68;4.07;;;;;;;;;;5024161;28;20863;-78
2023/07/20 08:00:54;;;;;;;9.70;4.40;;;;;;;;;;5036437;28;20139;-76
2023/07/20 08:03:19;;;;;;;9.70;4.32;;;;;;;;;;5031722;28;20452;-75
2023/07/20 08:05:44;;;;;;;7.07;4.13;;;;;;;;;;5011276;28;20021;-73
2023/07/20 08:08:10;;;;;;;6.43;4.22;;;;;;;;;;5021221;28;20029;-74
2023/07/20 08:10:35;;;;;;;7.13;3.95;;;;;;;;;;5030997;28;20048;-77
2023/07/20 08:13:00;;;;;;;8.73;3.63;;;;;;;;;;5017416;28;20039;-74
2023/07/20 08:15:26;;;;;;;7.00;3.78;;;;;;;;;;5014538;28;20067;-71
2023/07/20 08:17:52;;;;;;;8.63;3.95;;;;;;;;;;5021812;28;20110;-77
2023/07/20 08:20:17;;;;;;;9.75;4.13;;;;;;;;;;5020604;28;20043;-76
2023/07/20 08:22:43;;;;;;;7.85;3.80;;;;;;;;;;5019769;28;20033;-75
2023/07/20 08:25:08;;;;;;;11.95;3.80;;;;;;;;;;5025950;28;20052;-76
2023/07/20 08:27:34;;;;;;;7.00;3.40;;;;;;;;;;5018607;28;20808;-75
2023/07/20 08:30:00;;;;;;;8.15;3.97;;;;;;;;;;5018345;28;20033;-76
2023/07/20 08:32:26;;;;;;;9.57;4.15;;;;;;;;;;5026770;28;20100;-76
2023/07/20 08:34:51;;;;;;;6.82;3.45;;;;;;;;;;5029520;28;20021;-76
2023/07/20 08:37:16;;;;;;;9.23;3.80;;;;;;;;;;5023163;28;20036;-76
2023/07/20 08:39:42;;;;;;;9.68;3.55;;;;;;;;;;5026479;28;20544;-73
2023/07/20 08:42:09;;;;;;;7.50;3.85;;;;;;;;;;5019233;28;20021;-71
2023/07/20 08:44:35;;;;;;;11.68;3.90;;;;;;;;;;5021568;28;20044;-70
2023/07/20 08:47:04;;;;;;;7.63;4.05;;;;;;;;;;5051637;28;20029;-74
2023/07/20 08:49:31;;;;;;;8.20;3.63;;;;;;;;;;5024859;28;20033;-74
2023/07/20 08:51:57;;;;;;;8.43;4.10;;;;;;;;;;5026096;28;20028;-76
2023/07/20 08:54:23;;;;;;;11.60;3.88;;;;;;;;;;5019073;28;20021;-73
2023/07/20 08:56:49;;;;;;;7.22;3.70;;;;;;;;;;5015202;28;20033;-75
2023/07/20 08:59:16;;;;;;;10.05;3.42;;;;;;;;;;5022779;28;20041;-74
2023/07/20 09:01:42;;;;;;;4.72;3.45;;;;;;;;;;5025172;28;20455;-77
2023/07/20 09:04:07;;;;;;;6.53;3.83;;;;;;;;;;5023817;28;20029;-73
2023/07/20 09:06:34;;;;;;;10.15;4.30;;;;;;;;;;5022191;28;20061;-75
2023/07/20 09:09:00;;;;;;;7.30;3.60;;;;;;;;;;5017476;28;20075;-72
2023/07/20 09:11:25;;;;;;;8.10;3.78;;;;;;;;;;5018514;28;20045;-74
2023/07/20 09:14:06;;;;;;;7.72;3.83;;;;;;;;;;5025625;28;20344;-75
2023/07/20 09:16:32;;;;;;;10.55;5.03;;;;;;;;;;5024869;28;20104;-75
2023/07/20 09:18:58;;;;;;;9.18;4.75;;;;;;;;;;5018210;28;20079;-76
2023/07/20 09:21:23;;;;;;;5.82;3.47;;;;;;;;;;5019066;28;20450;-75
2023/07/20 09:23:53;;;;;;;7.68;3.80;;;;;;;;;;5020220;28;20032;-73
2023/07/20 09:26:18;;;;;;;7.65;3.80;;;;;;;;;;5015902;28;20024;-74
2023/07/20 09:28:54;;;;;;;8.38;5.05;;;;;;;;;;5019690;28;20029;-76
2023/07/20 09:31:20;;;;;;;8.75;4.47;;;;;;;;;;5019677;28;20025;-77
2023/07/20 09:33:49;;;;;;;6.28;3.50;;;;;;;;;;5028804;28;20032;-76
2023/07/20 09:36:15;;;;;;;7.30;3.25;;;;;;;;;;5021863;28;20025;-75
2023/07/20 09:38:44;;;;;;;6.97;3.17;;;;;;;;;;5027265;28;20052;-75
2023/07/20 09:41:15;;;;;;;9.32;3.40;;;;;;;;;;5019391;28;20021;-77
2023/07/20 09:43:41;;;;;;;6.50;3.28;;;;;;;;;;5025538;28;20041;-76
2023/07/20 09:46:06;;;;;;;9.55;3.60;;;;;;;;;;5021987;28;20021;-76
2023/07/20 09:48:32;;;;;;;7.65;3.05;;;;;;;;;;5021274;28;20115;-75
2023/07/20 09:50:57;;;;;;;4.90;2.92;;;;;;;;;;5028593;28;20025;-75
2023/07/20 09:53:24;;;;;;;5.05;2.97;;;;;;;;;;5029122;28;20071;-75
2023/07/20 09:55:50;;;;;;;8.15;3.10;;;;;;;;;;5024726;28;20025;-76
2023/07/20 09:58:15;;;;;;;10.32;2.80;;;;;;;;;;5030094;28;20473;-74
2023/07/20 10:00:49;;;;;;;6.30;2.88;;;;;;;;;;5025262;28;20028;-75
2023/07/20 10:03:18;;;;;;;5.95;2.72;;;;;;;;;;5027228;28;20021;-75
2023/07/20 10:05:46;;;;;;;7.53;2.95;;;;;;;;;;5025903;28;20028;-76
2023/07/20 10:08:12;;;;;;;5.03;2.58;;;;;;;;;;5024686;28;20045;-76
2023/07/20 10:10:40;;;;;;;8.77;2.55;;;;;;;;;;5025392;28;20059;-76
2023/07/20 10:13:10;;;;;;;5.90;2.72;;;;;;;;;;5028945;28;20108;-75
2023/07/20 10:15:50;;;;;;;7.00;3.38;;;;;;;;;;5029712;28;20053;-76
2023/07/20 10:18:28;;;;;;;5.53;3.03;;;;;;;;;;5024403;28;20041;-75
2023/07/20 10:20:54;;;;;;;8.17;3.20;;;;;;;;;;5035398;28;20436;-76
2023/07/20 10:23:20;;;;;;;7.45;2.95;;;;;;;;;;5025304;28;20025;-76
2023/07/20 10:25:46;;;;;;;4.10;2.42;;;;;;;;;;5039227;28;20029;-77
2023/07/20 10:28:11;;;;;;;4.03;2.20;;;;;;;;;;5032926;28;20120;-76
2023/07/20 10:30:38;;;;;;;5.15;2.78;;;;;;;;;;5024317;28;20041;-78
2023/07/20 10:33:04;;;;;;;4.47;2.20;;;;;;;;;;5022971;28;20091;-77
2023/07/20 10:35:29;;;;;;;8.52;2.78;;;;;;;;;;5020893;28;20017;-78
2023/07/20 10:38:00;;;;;;;5.28;2.70;;;;;;;;;;5022654;28;20102;-78
2023/07/20 10:40:26;;;;;;;4.43;2.40;;;;;;;;;;5022441;28;20025;-75
2023/07/20 10:42:55;;;;;;;7.38;2.63;;;;;;;;;;5020150;28;20136;-78
2023/07/20 10:45:21;;;;;;;5.78;2.58;;;;;;;;;;5023885;28;20115;-77
2023/07/20 10:47:46;;;;;;;7.80;2.65;;;;;;;;;;5023614;28;20492;-75
2023/07/20 10:50:12;;;;;;;5.13;2.38;;;;;;;;;;5025345;28;24087;-78
2023/07/20 10:52:38;;;;;;;6.30;2.30;;;;;;;;;;5021545;28;20029;-76
2023/07/20 10:55:16;;;;;;;5.90;2.50;;;;;;;;;;5021114;28;20037;-76
2023/07/20 10:57:41;;;;;;;7.03;2.70;;;;;;;;;;5021946;28;20024;-76
2023/07/20 11:00:14;;;;;;;6.53;2.70;;;;;;;;;;5018605;28;20044;-76
2023/07/20 11:02:49;;;;;;;4.65;2.75;;;;;;;;;;5019033;28;20032;-75
2023/07/20 11:05:35;;;;;;;4.18;2.75;;;;;;;;;;5023252;28;20034;-75
2023/07/20 11:08:02;;;;;;;4.30;2.70;;;;;;;;;;5023154;28;20135;-75
2023/07/20 11:10:27;;;;;;;7.22;2.70;;;;;;;;;;5023416;28;21336;-77
2023/07/20 11:13:11;;;;;;;6.65;3.05;;;;;;;;;;5020324;28;20040;-76
2023/07/20 11:15:55;;;;;;;4.88;2.70;;;;;;;;;;5019058;28;20025;-77
2023/07/20 11:18:20;;;;;;;7.22;3.20;;;;;;;;;;5018790;28;20037;-75
2023/07/20 11:20:50;;;;;;;4.28;2.35;;;;;;;;;;5018605;28;20040;-74
2023/07/20 11:23:16;;;;;;;5.25;2.92;;;;;;;;;;5019974;28;20369;-76
2023/07/20 11:25:41;;;;;;;7.20;2.80;;;;;;;;;;5020000;28;20021;-75
2023/07/20 11:28:07;;;;;;;9.20;2.85;;;;;;;;;;5020553;28;20422;-74
2023/07/20 11:30:33;;;;;;;5.45;2.83;;;;;;;;;;5018052;28;20033;-74
2023/07/20 11:32:59;;;;;;;5.07;2.47;;;;;;;;;;5019162;28;20029;-75
2023/07/20 11:35:24;;;;;;;4.80;2.67;;;;;;;;;;5019786;28;20022;-76
2023/07/20 11:37:49;;;;;;;4.63;2.83;;;;;;;;;;5022830;28;20095;-75
2023/07/20 11:40:15;;;;;;;3.10;2.58;;;;;;;;;;5023610;28;20033;-75
2023/07/20 11:42:40;;;;;;;8.63;2.88;;;;;;;;;;5020124;28;20090;-75
2023/07/20 11:45:06;;;;;;;4.38;2.80;;;;;;;;;;5023793;28;20079;-74
2023/07/20 11:47:32;;;;;;;6.45;3.08;;;;;;;;;;5016787;28;20407;-74
2023/07/20 11:50:02;;;;;;;3.65;2.58;;;;;;;;;;5019894;28;20037;-75
2023/07/20 11:52:28;;;;;;;5.78;2.83;;;;;;;;;;5014809;28;20026;-77
2023/07/20 11:54:53;;;;;;;5.97;2.78;;;;;;;;;;5021366;28;20032;-77
2023/07/20 11:57:19;;;;;;;6.80;3.13;;;;;;;;;;5022022;28;20037;-75
2023/07/20 11:59:59;;;;;;;5.45;3.03;;;;;;;;;;5029109;28;20052;-76
2023/07/20 12:02:26;;;;;;;5.85;3.33;;;;;;;;;;5020819;28;20115;-77
2023/07/20 12:04:52;;;;;;;7.18;3.60;;;;;;;;;;5021979;28;20043;-78
2023/07/20 12:07:18;;;;;;;5.15;3.05;;;;;;;;;;5052587;28;20364;-77
2023/07/20 12:09:44;;;;;;;5.40;3.25;;;;;;;;;;5024196;28;20049;-78
2023/07/20 12:12:13;;;;;;;9.43;3.47;;;;;;;;;;5024203;28;20044;-75
2023/07/20 12:14:38;;;;;;;;;;;;;;;;;;5024849;28;20707;-76
2023/07/20 12:17:03;;;;;;;5.67;3.20;;;;;;;;;;5018579;28;19927;-77
2023/07/20 12:19:30;;;;;;;5.68;3.20;;;;;;;;;;5021137;28;20128;-77
2023/07/20 12:21:59;;;;;;;6.30;3.40;;;;;;;;;;5018284;28;20072;-76
2023/07/20 12:24:24;;;;;;;5.70;3.17;;;;;;;;;;5052320;28;20092;-76
2023/07/20 12:26:55;;;;;;;6.75;3.70;;;;;;;;;;5021868;28;20416;-78
2023/07/20 12:29:21;;;;;;;8.77;5.60;;;;;;;;;;5021792;28;20029;-75
2023/07/20 12:31:46;;;;;;;16.80;9.13;;;;;;;;;;5019276;28;20049;-78
2023/07/20 12:34:12;;;;;;;11.45;6.75;;;;;;;;;;5028540;28;20040;-75
2023/07/20 12:36:37;;;;;;;10.82;4.50;;;;;;;;;;5029142;28;20021;-75
2023/07/20 12:39:03;;;;;;;6.45;3.38;;;;;;;;;;5025192;28;20039;-78
2023/07/20 12:41:28;;;;;;;7.15;4.13;;;;;;;;;;5022813;28;20096;-77
2023/07/20 12:43:57;;;;;;;5.93;3.70;;;;;;;;;;5027355;28;20022;-78
2023/07/20 12:46:23;;;;;;;10.35;3.97;;;;;;;;;;5030626;28;20459;-78
2023/07/20 12:48:49;;;;;;;8.30;3.67;;;;;;;;;;5032818;28;20044;-76
2023/07/20 12:51:14;;;;;;;8.35;3.78;;;;;;;;;;5016895;28;20033;-78
2023/07/20 12:53:39;;;;;;;6.18;3.80;;;;;;;;;;5018782;28;20036;-78
2023/07/20 12:56:05;;;;;;;5.68;3.92;;;;;;;;;;5054388;28;20052;-77
2023/07/20 12:58:30;;;;;;;6.93;3.40;;;;;;;;;;5019661;28;20029;-77
2023/07/20 13:00:56;;;;;;;8.30;3.72;;;;;;;;;;5021825;28;20029;-82
2023/07/20 13:03:21;;;;;;;5.28;3.13;;;;;;;;;;5018624;28;20029;-76
2023/07/20 13:05:47;;;;;;;6.03;2.75;;;;;;;;;;5021463;28;20144;-78
2023/07/20 13:08:13;;;;;;;7.40;3.70;;;;;;;;;;5020462;28;20068;-76
2023/07/20 13:10:38;;;;;;;5.18;3.33;;;;;;;;;;5019522;28;20041;-78
2023/07/20 13:13:04;;;;;;;6.30;3.83;;;;;;;;;;5027620;28;20484;-75
2023/07/20 13:15:31;;;;;;;7.47;3.33;;;;;;;;;;5033727;28;20020;-76
2023/07/20 13:17:57;;;;;;;4.82;3.25;;;;;;;;;;5034080;28;20049;-78
2023/07/20 13:20:22;;;;;;;5.43;2.92;;;;;;;;;;5029476;28;20060;-76
2023/07/20 13:22:48;;;;;;;4.45;3.30;;;;;;;;;;5026210;28;20108;-80
2023/07/20 13:25:14;;;;;;;5.25;3.08;;;;;;;;;;5025759;28;20432;-78
2023/07/20 13:27:39;;;;;;;4.32;3.20;;;;;;;;;;5022505;28;20478;-79
2023/07/20 13:30:07;;;;;;;7.65;3.70;;;;;;;;;;5023551;28;20036;-81
2023/07/20 13:32:33;;;;;;;9.07;3.83;;;;;;;;;;5020535;28;20053;-77
2023/07/20 13:34:59;;;;;;;4.07;2.97;;;;;;;;;;5024189;28;20086;-78
2023/07/20 13:37:25;;;;;;;7.47;3.55;;;;;;;;;;5023761;28;20021;-78
2023/07/20 13:39:50;;;;;;;5.15;3.05;;;;;;;;;;5019659;28;20040;-80
2023/07/20 13:42:19;;;;;;;5.32;3.38;;;;;;;;;;5026810;28;20051;-77
2023/07/20 13:44:44;;;;;;;4.50;3.47;;;;;;;;;;5026549;28;20482;-81
2023/07/20 13:47:09;;;;;;;5.30;3.40;;;;;;;;;;5028166;28;20458;-81
2023/07/20 13:49:35;;;;;;;9.20;4.03;;;;;;;;;;5025209;28;20044;-76
2023/07/20 13:52:00;;;;;;;7.07;3.40;;;;;;;;;;5023920;28;20116;-74
2023/07/20 13:54:26;;;;;;;6.75;3.72;;;;;;;;;;5025528;28;20101;-75
2023/07/20 13:56:52;;;;;;;5.90;3.78;;;;;;;;;;5027901;28;20511;-73
2023/07/20 13:59:20;;;;;;;5.97;3.70;;;;;;;;;;5055290;28;20041;-74
2023/07/20 14:01:46;;;;;;;5.95;3.30;;;;;;;;;;5026105;28;20042;-72
2023/07/20 14:04:12;;;;;;;5.20;3.33;;;;;;;;;;5024135;28;20082;-72
2023/07/20 14:06:37;;;;;;;7.72;3.85;;;;;;;;;;5025343;28;20029;-73
2023/07/20 14:09:03;;;;;;;5.13;3.47;;;;;;;;;;5025886;28;20476;-74
2023/07/20 14:11:28;;;;;;;5.43;3.50;;;;;;;;;;5035396;28;20113;-74
2023/07/20 14:13:54;;;;;;;4.95;3.22;;;;;;;;;;5024101;28;20024;-75
2023/07/20 14:16:22;;;;;;;6.68;3.28;;;;;;;;;;5024799;28;20032;-75
2023/07/20 14:18:48;;;;;;;4.40;3.10;;;;;;;;;;5029730;28;20415;-73
2023/07/20 14:21:14;;;;;;;7.57;3.80;;;;;;;;;;5035000;28;20375;-73
2023/07/20 14:23:39;;;;;;;9.13;3.80;;;;;;;;;;5038111;28;20033;-73
2023/07/20 14:26:05;;;;;;;7.95;3.67;;;;;;;;;;5035796;28;20022;-73
2023/07/20 14:28:31;;;;;;;5.30;3.10;;;;;;;;;;5023750;28;20044;-73
2023/07/20 14:30:57;;;;;;;8.40;3.38;;;;;;;;;;5026955;28;20055;-74
2023/07/20 14:33:22;;;;;;;4.88;3.30;;;;;;;;;;5028784;28;20035;-71
2023/07/20 14:35:47;;;;;;;8.02;3.50;;;;;;;;;;5021301;28;20032;-74